createdAt,value
2019-02-06T00:00:53.918Z,57.18
2019-02-06T00:02:14.829Z,57.31
2019-02-06T00:03:21.475Z,57.35
2019-02-06T00:04:25.622Z,57.47
2019-02-06T00:05:29.603Z,57.59
2019-02-06T00:06:33.575Z,57.73
2019-02-06T00:07:37.642Z,57.84
2019-02-06T00:08:41.870Z,57.89
2019-02-06T00:09:46.120Z,57.87
2019-02-06T00:10:50.332Z,57.78
2019-02-06T00:11:54.251Z,57.82
2019-02-06T00:12:58.200Z,57.88
2019-02-06T00:14:02.458Z,57.90
2019-02-06T00:15:06.499Z,57.90
2019-02-06T00:16:10.718Z,57.95
2019-02-06T00:17:14.686Z,57.98
2019-02-06T00:18:18.960Z,58.06
2019-02-06T00:19:23.423Z,58.08
2019-02-06T00:20:27.631Z,58.08
2019-02-06T00:21:31.604Z,58.13
2019-02-06T00:22:35.579Z,58.15
2019-02-06T00:23:40.080Z,58.20
2019-02-06T00:24:43.902Z,58.25
2019-02-06T00:25:48.192Z,58.25
2019-02-06T00:26:52.418Z,58.22
2019-02-06T00:27:56.559Z,58.14
2019-02-06T00:29:00.562Z,58.12
2019-02-06T00:30:05.833Z,58.09
2019-02-06T00:31:09.813Z,58.07
2019-02-06T00:32:13.782Z,58.05
2019-02-06T00:33:17.923Z,58.07
2019-02-06T00:34:21.758Z,58.03
2019-02-06T00:35:26.272Z,58.04
2019-02-06T00:36:30.275Z,58.04
2019-02-06T00:37:34.427Z,58.05
2019-02-06T00:38:38.747Z,58.10
2019-02-06T00:39:42.938Z,58.13
2019-02-06T00:40:46.910Z,58.16
2019-02-06T00:41:51.118Z,58.21
2019-02-06T00:42:55.019Z,58.34
2019-02-06T00:43:58.929Z,58.38
2019-02-06T00:45:03.008Z,58.46
2019-02-06T00:46:07.474Z,58.59
2019-02-06T00:47:11.371Z,58.76
2019-02-06T00:48:15.523Z,58.87
2019-02-06T00:49:19.746Z,58.99
2019-02-06T00:50:23.962Z,59.08
2019-02-06T00:51:28.100Z,59.16
2019-02-06T00:52:32.003Z,59.27
2019-02-06T00:53:35.979Z,59.30
2019-02-06T00:54:40.087Z,59.35
2019-02-06T00:55:44.306Z,59.36
2019-02-06T00:56:48.439Z,59.35
2019-02-06T00:57:52.422Z,59.36
2019-02-06T00:58:56.386Z,59.38
2019-02-06T01:00:00.624Z,59.38
2019-02-06T01:01:05.359Z,59.39
2019-02-06T01:02:09.576Z,59.41
2019-02-06T01:03:33.117Z,59.40
2019-02-06T01:04:56.189Z,59.41
2019-02-06T01:07:42.484Z,59.33
2019-02-06T01:08:46.383Z,59.26
2019-02-06T01:09:50.294Z,59.38
2019-02-06T01:10:54.519Z,59.45
2019-02-06T01:11:59.002Z,59.48
2019-02-06T01:13:03.254Z,59.52
2019-02-06T01:14:07.231Z,59.48
2019-02-06T01:15:11.864Z,59.38
2019-02-06T01:16:15.753Z,59.23
2019-02-06T01:17:19.727Z,59.08
2019-02-06T01:18:23.806Z,58.98
2019-02-06T01:19:27.940Z,58.84
2019-02-06T01:20:32.107Z,58.78
2019-02-06T01:21:36.078Z,58.72
2019-02-06T01:22:40.398Z,58.69
2019-02-06T01:23:44.610Z,58.65
2019-02-06T01:24:49.091Z,58.61
2019-02-06T01:25:53.549Z,58.63
2019-02-06T01:26:57.869Z,58.60
2019-02-06T01:28:01.844Z,58.58
2019-02-06T01:29:06.061Z,58.60
2019-02-06T01:30:16.644Z,58.68
2019-02-06T01:31:23.410Z,58.72
2019-02-06T01:32:27.439Z,58.68
2019-02-06T01:33:50.349Z,58.65
2019-02-06T01:35:13.400Z,58.68
2019-02-06T01:36:36.423Z,58.63
2019-02-06T01:37:59.517Z,58.74
2019-02-06T01:40:47.474Z,59.01
2019-02-06T01:41:51.647Z,59.01
2019-02-06T01:43:14.670Z,59.10
2019-02-06T01:44:18.578Z,59.21
2019-02-06T01:45:43.341Z,59.25
2019-02-06T01:47:06.471Z,59.35
2019-02-06T01:48:29.486Z,59.38
2019-02-06T01:49:52.831Z,59.56
2019-02-06T01:51:15.879Z,59.68
2019-02-06T01:52:21.582Z,59.81
2019-02-06T01:53:46.264Z,60.01
2019-02-06T01:55:09.661Z,60.13
2019-02-06T01:58:14.743Z,60.46
2019-02-06T01:59:37.766Z,60.46
2019-02-06T02:02:28.969Z,60.56
2019-02-06T02:03:52.014Z,60.56
2019-02-06T02:06:22.024Z,60.58
2019-02-06T02:07:26.275Z,60.58
2019-02-06T02:08:32.414Z,60.66
2019-02-06T02:09:36.702Z,60.70
2019-02-06T02:10:40.971Z,60.74
2019-02-06T02:11:44.991Z,60.75
2019-02-06T02:12:49.178Z,60.77
2019-02-06T02:13:53.651Z,60.75
2019-02-06T02:14:57.974Z,60.73
2019-02-06T02:16:02.228Z,60.71
2019-02-06T02:17:06.233Z,60.67
2019-02-06T02:18:10.474Z,60.68
2019-02-06T02:19:14.828Z,60.70
2019-02-06T02:20:23.112Z,60.71
2019-02-06T02:21:27.110Z,60.75
2019-02-06T02:22:31.626Z,60.78
2019-02-06T02:23:35.616Z,60.82
2019-02-06T02:24:39.921Z,60.84
2019-02-06T02:25:44.111Z,60.90
2019-02-06T02:26:48.637Z,60.90
2019-02-06T02:28:11.693Z,60.90
2019-02-06T02:29:34.995Z,60.87
2019-02-06T02:30:58.126Z,60.86
2019-02-06T02:32:21.172Z,60.88
2019-02-06T02:35:26.488Z,61.00
2019-02-06T02:36:49.887Z,61.01
2019-02-06T02:39:54.955Z,61.19
2019-02-06T02:41:18.364Z,61.40
2019-02-06T02:42:41.407Z,61.49
2019-02-06T02:44:04.904Z,61.77
2019-02-06T02:45:49.274Z,61.91
2019-02-06T02:47:12.715Z,62.10
2019-02-06T02:48:35.625Z,62.16
2019-02-06T02:49:40.179Z,62.18
2019-02-06T02:52:26.283Z,62.31
2019-02-06T02:53:49.914Z,62.27
2019-02-06T02:55:13.264Z,62.24
2019-02-06T02:56:36.320Z,62.19
2019-02-06T02:57:40.580Z,62.30
2019-02-06T02:59:03.975Z,62.46
2019-02-06T03:02:15.931Z,62.66
2019-02-06T03:03:58.207Z,62.77
2019-02-06T03:05:21.185Z,62.90
2019-02-06T03:06:44.334Z,62.91
2019-02-06T03:08:07.384Z,62.99
2019-02-06T03:09:12.766Z,63.04
2019-02-06T03:10:17.061Z,63.07
2019-02-06T03:13:22.387Z,63.08
2019-02-06T03:14:45.710Z,62.95
2019-02-06T03:16:09.068Z,62.98
2019-02-06T03:17:32.062Z,63.05
2019-02-06T03:18:57.160Z,63.10
2019-02-06T03:21:24.618Z,63.19
2019-02-06T03:22:28.469Z,63.23
2019-02-06T03:23:51.507Z,63.28
2019-02-06T03:25:14.402Z,63.27
2019-02-06T03:26:37.423Z,63.28
2019-02-06T03:27:41.415Z,63.17
2019-02-06T03:29:04.707Z,63.23
2019-02-06T03:30:49.092Z,63.27
2019-02-06T03:32:12.262Z,63.38
2019-02-06T03:33:35.523Z,63.52
2019-02-06T03:34:41.200Z,63.68
2019-02-06T03:36:05.945Z,63.75
2019-02-06T03:37:28.920Z,63.78
2019-02-06T03:38:52.283Z,63.79
2019-02-06T03:39:56.399Z,63.91
2019-02-06T03:41:19.427Z,63.91
2019-02-06T03:43:46.737Z,63.94
2019-02-06T03:45:30.959Z,64.00
2019-02-06T03:48:17.596Z,64.02
2019-02-06T03:51:15.412Z,63.92
2019-02-06T03:52:28.396Z,63.89
2019-02-06T03:53:32.527Z,63.87
2019-02-06T03:54:36.722Z,63.92
2019-02-06T03:55:59.993Z,64.01
2019-02-06T03:57:23.007Z,64.14
2019-02-06T03:58:26.931Z,64.23
2019-02-06T03:59:50.287Z,64.29
2019-02-06T04:01:13.253Z,64.35
2019-02-06T04:02:17.747Z,64.38
2019-02-06T04:03:41.115Z,64.48
2019-02-06T04:05:04.763Z,64.57
2019-02-06T04:06:27.725Z,64.58
2019-02-06T04:07:50.823Z,64.59
2019-02-06T04:09:14.228Z,64.53
2019-02-06T04:10:57.699Z,64.46
2019-02-06T04:12:20.726Z,64.43
2019-02-06T04:13:43.936Z,64.34
2019-02-06T04:15:06.838Z,64.29
2019-02-06T04:16:30.034Z,64.24
2019-02-06T04:17:54.531Z,64.15
2019-02-06T04:18:58.702Z,64.03
2019-02-06T04:20:22.072Z,63.90
2019-02-06T04:21:45.426Z,63.87
2019-02-06T04:24:51.739Z,63.55
2019-02-06T04:25:56.025Z,63.54
2019-02-06T04:27:19.164Z,63.62
2019-02-06T04:30:44.709Z,63.73
2019-02-06T04:33:49.687Z,63.67
2019-02-06T04:35:12.967Z,63.66
2019-02-06T04:36:17.374Z,63.65
2019-02-06T04:37:40.403Z,63.56
2019-02-06T04:38:44.934Z,63.60
2019-02-06T04:40:08.184Z,63.51
2019-02-06T04:41:31.542Z,63.43
2019-02-06T04:42:56.478Z,63.41
2019-02-06T04:44:00.638Z,63.40
2019-02-06T04:45:44.367Z,63.49
2019-02-06T04:47:07.605Z,63.58
2019-02-06T04:48:32.230Z,63.65
2019-02-06T04:49:36.823Z,63.65
2019-02-06T04:52:22.725Z,63.77
2019-02-06T04:53:26.918Z,63.83
2019-02-06T04:54:50.128Z,63.90
2019-02-06T04:55:54.629Z,63.98
2019-02-06T04:57:17.586Z,64.17
2019-02-06T04:58:40.721Z,64.26
2019-02-06T05:00:03.758Z,64.27
2019-02-06T05:01:26.716Z,64.34
2019-02-06T05:04:12.692Z,64.29
2019-02-06T05:05:35.723Z,64.35
2019-02-06T05:06:40.329Z,64.40
2019-02-06T05:07:44.538Z,64.42
2019-02-06T05:12:50.824Z,64.24
2019-02-06T05:13:54.650Z,64.28
2019-02-06T05:15:17.967Z,64.24
2019-02-06T05:16:21.801Z,64.19
2019-02-06T05:19:07.921Z,64.25
2019-02-06T05:20:50.331Z,64.21
2019-02-06T05:22:13.613Z,64.25
2019-02-06T05:23:57.326Z,64.13
2019-02-06T05:25:01.868Z,64.08
2019-02-06T05:26:24.909Z,64.06
2019-02-06T05:27:30.893Z,63.96
2019-02-06T05:30:38.034Z,63.96
2019-02-06T05:32:01.050Z,63.97
2019-02-06T05:33:44.604Z,63.99
2019-02-06T05:35:07.734Z,64.00
2019-02-06T05:36:30.716Z,63.89
2019-02-06T05:41:18.323Z,63.73
2019-02-06T05:46:06.989Z,63.54
2019-02-06T05:47:30.305Z,63.46
2019-02-06T05:48:53.624Z,63.45
2019-02-06T05:50:16.678Z,63.41
2019-02-06T05:51:20.889Z,63.36
2019-02-06T05:52:44.032Z,63.39
2019-02-06T05:53:48.142Z,63.50
2019-02-06T05:55:11.498Z,63.51
2019-02-06T05:56:34.410Z,63.54
2019-02-06T05:57:57.670Z,63.49
2019-02-06T05:59:01.585Z,63.50
2019-02-06T06:00:46.532Z,63.46
2019-02-06T06:02:09.842Z,63.56
2019-02-06T06:03:15.466Z,63.60
2019-02-06T06:04:38.375Z,63.63
2019-02-06T06:06:01.303Z,63.65
2019-02-06T06:07:24.860Z,63.61
2019-02-06T06:08:29.080Z,63.51
2019-02-06T06:09:32.902Z,63.45
2019-02-06T06:10:37.050Z,63.45
2019-02-06T06:11:40.968Z,63.40
2019-02-06T06:12:45.150Z,63.49
2019-02-06T06:13:49.373Z,63.49
2019-02-06T06:14:53.521Z,63.51
2019-02-06T06:15:57.952Z,63.51
2019-02-06T06:17:01.940Z,63.47
2019-02-06T06:18:05.907Z,63.43
2019-02-06T06:19:09.804Z,63.40
2019-02-06T06:20:14.820Z,63.40
2019-02-06T06:21:19.213Z,63.36
2019-02-06T06:22:23.198Z,63.18
2019-02-06T06:23:27.269Z,63.17
2019-02-06T06:24:31.250Z,63.15
2019-02-06T06:25:35.229Z,63.16
2019-02-06T06:26:39.139Z,63.13
2019-02-06T06:27:43.126Z,63.12
2019-02-06T06:28:47.028Z,63.08
2019-02-06T06:29:51.189Z,63.05
2019-02-06T06:30:55.146Z,63.02
2019-02-06T06:31:59.117Z,62.99
2019-02-06T06:33:02.984Z,62.95
2019-02-06T06:34:07.173Z,62.91
2019-02-06T06:35:11.641Z,62.77
2019-02-06T06:36:35.039Z,62.66
2019-02-06T06:38:01.763Z,62.54
2019-02-06T06:40:48.483Z,62.27
2019-02-06T06:42:11.512Z,62.16
2019-02-06T06:43:34.410Z,62.10
2019-02-06T06:46:21.010Z,62.09
2019-02-06T06:47:44.355Z,62.08
2019-02-06T06:49:07.316Z,62.08
2019-02-06T06:50:51.979Z,62.03
2019-02-06T06:51:55.812Z,61.95
2019-02-06T06:53:19.186Z,61.82
2019-02-06T06:54:42.465Z,61.77
2019-02-06T06:56:05.486Z,61.71
2019-02-06T06:57:29.060Z,61.66
2019-02-06T06:58:34.702Z,61.69
2019-02-06T07:01:39.657Z,61.94
2019-02-06T07:03:02.684Z,61.99
2019-02-06T07:04:25.688Z,62.05
2019-02-06T07:05:50.359Z,62.12
2019-02-06T07:07:34.067Z,62.12
2019-02-06T07:08:56.975Z,62.07
2019-02-06T07:13:24.961Z,61.63
2019-02-06T07:14:48.318Z,61.52
2019-02-06T07:16:12.928Z,61.42
2019-02-06T07:17:36.283Z,61.39
2019-02-06T07:18:59.324Z,61.33
2019-02-06T07:20:03.320Z,61.34
2019-02-06T07:21:07.302Z,61.32
2019-02-06T07:22:30.267Z,61.32
2019-02-06T07:23:53.423Z,61.25
2019-02-06T07:25:16.411Z,61.21
2019-02-06T07:26:39.429Z,61.13
2019-02-06T07:29:25.812Z,61.22
2019-02-06T07:31:10.087Z,61.23
2019-02-06T07:32:36.212Z,61.11
2019-02-06T07:33:39.035Z,61.10
2019-02-06T07:35:02.196Z,61.27
2019-02-06T07:37:48.322Z,60.88
2019-02-06T07:39:13.324Z,60.59
2019-02-06T07:40:56.821Z,60.47
2019-02-06T07:43:24.006Z,60.46
2019-02-06T07:44:47.614Z,60.55
2019-02-06T07:45:51.790Z,60.70
2019-02-06T07:46:57.773Z,60.65
2019-02-06T07:48:03.756Z,60.62
2019-02-06T07:51:08.734Z,60.50
2019-02-06T07:52:32.110Z,60.40
2019-02-06T07:53:55.464Z,60.35
2019-02-06T07:55:20.576Z,60.25
2019-02-06T07:56:43.843Z,60.18
2019-02-06T07:58:06.815Z,60.05
2019-02-06T07:59:30.110Z,59.93
2019-02-06T08:00:53.161Z,59.95
2019-02-06T08:01:58.790Z,59.97
2019-02-06T08:03:04.849Z,59.97
2019-02-06T08:04:08.748Z,59.97
2019-02-06T08:05:15.132Z,59.98
2019-02-06T08:06:19.030Z,60.00
2019-02-06T08:07:22.926Z,60.00
2019-02-06T08:08:35.628Z,60.12
2019-02-06T08:09:32.626Z,60.12
2019-02-06T08:10:36.864Z,60.15
2019-02-06T08:11:41.077Z,60.12
2019-02-06T08:12:44.986Z,60.12
2019-02-06T08:13:49.058Z,60.14
2019-02-06T08:14:53.738Z,60.15
2019-02-06T08:15:57.694Z,60.14
2019-02-06T08:17:01.630Z,60.13
2019-02-06T08:18:06.650Z,60.16
2019-02-06T08:19:11.245Z,60.14
2019-02-06T08:20:16.866Z,60.05
2019-02-06T08:21:21.030Z,59.97
2019-02-06T08:22:24.930Z,59.95
2019-02-06T08:23:48.134Z,59.91
2019-02-06T08:25:11.026Z,59.86
2019-02-06T08:26:34.092Z,59.77
2019-02-06T08:27:56.994Z,59.67
2019-02-06T08:29:08.367Z,59.60
2019-02-06T08:30:54.188Z,59.61
2019-02-06T08:32:17.100Z,59.64
2019-02-06T08:33:40.126Z,59.66
2019-02-06T08:35:03.439Z,59.55
2019-02-06T08:38:49.382Z,59.38
2019-02-06T08:39:51.915Z,59.35
2019-02-06T08:41:14.955Z,59.31
2019-02-06T08:42:38.173Z,59.16
2019-02-06T08:43:42.409Z,59.14
2019-02-06T08:45:05.776Z,59.12
2019-02-06T08:46:28.806Z,59.08
2019-02-06T08:47:51.836Z,58.89
2019-02-06T08:49:15.130Z,59.02
2019-02-06T08:50:58.899Z,59.05
2019-02-06T08:52:21.934Z,59.02
2019-02-06T08:53:45.022Z,58.93
2019-02-06T08:55:09.724Z,58.87
2019-02-06T08:56:53.291Z,58.79
2019-02-06T08:58:36.779Z,58.68
2019-02-06T08:59:41.090Z,58.74
2019-02-06T09:01:04.292Z,58.69
2019-02-06T09:02:27.302Z,58.38
2019-02-06T09:05:52.859Z,58.13
2019-02-06T09:06:56.827Z,58.21
2019-02-06T09:08:01.133Z,58.31
2019-02-06T09:09:46.679Z,58.34
2019-02-06T09:10:50.905Z,58.26
2019-02-06T09:12:14.131Z,58.23
2019-02-06T09:13:38.882Z,58.20
2019-02-06T09:15:01.902Z,58.14
2019-02-06T09:16:45.373Z,58.07
2019-02-06T09:18:08.594Z,58.11
2019-02-06T09:19:31.918Z,58.01
2019-02-06T09:22:19.374Z,57.08
2019-02-06T09:23:42.397Z,57.41
2019-02-06T09:25:07.005Z,57.38
2019-02-06T09:26:33.972Z,57.40
2019-02-06T09:27:54.732Z,57.27
2019-02-06T09:29:17.752Z,56.79
2019-02-06T09:31:02.347Z,56.91
2019-02-06T09:32:25.626Z,56.75
2019-02-06T09:33:49.034Z,56.99
2019-02-06T09:35:11.998Z,56.81
2019-02-06T09:36:36.686Z,56.82
2019-02-06T09:37:59.717Z,56.61
2019-02-06T09:40:45.845Z,56.68
2019-02-06T09:41:49.689Z,57.18
2019-02-06T09:43:12.803Z,56.95
2019-02-06T09:44:16.944Z,56.65
2019-02-06T09:45:20.918Z,56.31
2019-02-06T09:46:44.184Z,56.40
2019-02-06T09:47:49.911Z,56.60
2019-02-06T09:48:54.350Z,56.75
2019-02-06T09:50:17.318Z,56.95
2019-02-06T09:51:40.427Z,57.17
2019-02-06T09:53:04.007Z,56.98
2019-02-06T09:55:53.255Z,56.39
2019-02-06T09:56:56.779Z,56.51
2019-02-06T09:58:00.770Z,56.83
2019-02-06T09:59:23.794Z,56.88
2019-02-06T10:01:10.044Z,56.69
2019-02-06T10:02:33.255Z,56.72
2019-02-06T10:03:56.295Z,56.75
2019-02-06T10:05:19.573Z,56.72
2019-02-06T10:06:42.594Z,56.97
2019-02-06T10:07:46.600Z,57.06
2019-02-06T10:08:50.872Z,56.92
2019-02-06T10:10:14.162Z,56.79
2019-02-06T10:13:19.283Z,56.51
2019-02-06T10:14:42.378Z,56.24
2019-02-06T10:15:46.210Z,55.82
2019-02-06T10:17:09.775Z,55.32
2019-02-06T10:18:32.856Z,55.56
2019-02-06T10:19:55.974Z,55.44
2019-02-06T10:21:00.001Z,55.38
2019-02-06T10:22:23.186Z,55.73
2019-02-06T10:23:46.206Z,55.75
2019-02-06T10:24:50.371Z,55.71
2019-02-06T10:26:13.415Z,56.02
2019-02-06T10:27:17.662Z,56.19
2019-02-06T10:28:40.713Z,55.82
2019-02-06T10:30:04.061Z,55.55
2019-02-06T10:31:09.318Z,55.50
2019-02-06T10:32:32.652Z,55.29
2019-02-06T10:33:55.632Z,55.33
2019-02-06T10:35:20.246Z,55.24
2019-02-06T10:36:43.539Z,55.17
2019-02-06T10:38:07.408Z,55.28
2019-02-06T10:39:50.883Z,55.30
2019-02-06T10:41:13.936Z,55.51
2019-02-06T10:42:17.843Z,55.39
2019-02-06T10:43:41.231Z,55.26
2019-02-06T10:45:04.141Z,55.32
2019-02-06T10:46:08.384Z,55.11
2019-02-06T10:47:12.281Z,55.14
2019-02-06T10:48:16.495Z,55.10
2019-02-06T10:49:20.483Z,55.00
2019-02-06T10:50:25.726Z,54.86
2019-02-06T10:51:29.622Z,54.75
2019-02-06T10:52:33.522Z,54.59
2019-02-06T10:53:37.374Z,54.44
2019-02-06T10:54:41.458Z,54.38
2019-02-06T10:55:47.181Z,54.21
2019-02-06T10:56:53.250Z,54.14
2019-02-06T10:58:16.272Z,53.97
2019-02-06T10:59:39.270Z,53.81
2019-02-06T11:01:27.683Z,53.81
2019-02-06T11:02:50.994Z,53.92
2019-02-06T11:04:14.354Z,53.82
2019-02-06T11:05:37.323Z,53.73
2019-02-06T11:07:00.342Z,53.59
2019-02-06T11:08:43.813Z,53.67
2019-02-06T11:10:07.123Z,53.65
2019-02-06T11:11:11.634Z,53.71
2019-02-06T11:12:34.854Z,53.54
2019-02-06T11:13:38.683Z,53.63
2019-02-06T11:15:01.731Z,53.66
2019-02-06T11:16:24.696Z,53.57
2019-02-06T11:17:48.030Z,53.53
2019-02-06T11:19:11.386Z,52.99
2019-02-06T11:20:56.223Z,53.25
2019-02-06T11:22:19.499Z,53.22
2019-02-06T11:23:44.270Z,53.27
2019-02-06T11:25:07.172Z,53.18
2019-02-06T11:26:30.134Z,53.23
2019-02-06T11:27:53.431Z,53.41
2019-02-06T11:29:16.987Z,53.39
2019-02-06T11:31:01.846Z,53.23
2019-02-06T11:33:49.589Z,53.20
2019-02-06T11:35:14.365Z,53.15
2019-02-06T11:36:37.563Z,52.96
2019-02-06T11:37:41.831Z,52.87
2019-02-06T11:41:29.763Z,52.69
2019-02-06T11:46:17.319Z,52.57
2019-02-06T11:47:40.464Z,52.25
2019-02-06T11:48:44.628Z,52.36
2019-02-06T11:50:09.862Z,52.35
2019-02-06T11:51:32.887Z,51.27
2019-02-06T11:52:56.151Z,51.64
2019-02-06T11:54:19.418Z,51.80
2019-02-06T11:55:43.607Z,51.93
2019-02-06T11:56:47.563Z,51.77
2019-02-06T11:58:12.312Z,51.56
2019-02-06T11:59:16.488Z,51.58
2019-02-06T12:01:00.583Z,51.13
2019-02-06T12:04:08.594Z,51.22
2019-02-06T12:05:52.093Z,51.38
2019-02-06T12:07:15.419Z,51.39
2019-02-06T12:10:20.503Z,51.26
2019-02-06T12:11:43.710Z,51.04
2019-02-06T12:13:29.410Z,50.57
2019-02-06T12:14:52.391Z,50.59
2019-02-06T12:16:15.487Z,50.22
2019-02-06T12:17:38.738Z,50.35
2019-02-06T12:19:01.875Z,50.55
2019-02-06T12:20:08.759Z,50.19
2019-02-06T12:21:31.668Z,50.44
2019-02-06T12:22:54.804Z,50.35
2019-02-06T12:26:00.199Z,50.29
2019-02-06T12:27:23.298Z,49.74
2019-02-06T12:28:46.317Z,49.89
2019-02-06T12:31:55.675Z,49.88
2019-02-06T12:32:59.663Z,49.84
2019-02-06T12:35:47.614Z,49.09
2019-02-06T12:36:51.778Z,49.17
2019-02-06T12:37:55.769Z,49.14
2019-02-06T12:39:19.007Z,48.96
2019-02-06T12:43:34.910Z,49.01
2019-02-06T12:44:59.127Z,49.04
2019-02-06T12:46:23.074Z,48.91
2019-02-06T12:47:27.282Z,48.91
2019-02-06T12:48:31.761Z,48.81
2019-02-06T12:49:35.903Z,48.30
2019-02-06T12:50:40.115Z,48.09
2019-02-06T12:51:44.207Z,48.24
2019-02-06T12:52:48.153Z,48.46
2019-02-06T12:53:52.383Z,48.60
2019-02-06T12:54:56.463Z,48.16
2019-02-06T12:56:00.430Z,48.25
2019-02-06T12:57:04.653Z,48.39
2019-02-06T12:58:09.189Z,48.27
2019-02-06T12:59:13.402Z,48.22
2019-02-06T13:00:23.430Z,48.15
2019-02-06T13:01:27.563Z,48.19
2019-02-06T13:02:31.546Z,48.16
2019-02-06T13:03:35.768Z,48.03
2019-02-06T13:04:39.915Z,47.97
2019-02-06T13:05:44.126Z,47.83
2019-02-06T13:06:48.283Z,46.99
2019-02-06T13:07:52.542Z,47.04
2019-02-06T13:08:56.749Z,46.58
2019-02-06T13:10:00.718Z,46.59
2019-02-06T13:11:04.953Z,46.57
2019-02-06T13:12:09.183Z,46.97
2019-02-06T13:13:13.414Z,46.71
2019-02-06T13:14:17.804Z,46.68
2019-02-06T13:15:22.541Z,46.74
2019-02-06T13:16:26.790Z,47.05
2019-02-06T13:17:30.944Z,47.22
2019-02-06T13:18:34.768Z,47.35
2019-02-06T13:19:38.668Z,47.38
2019-02-06T13:20:54.622Z,47.46
2019-02-06T13:22:17.528Z,47.46
2019-02-06T13:23:42.271Z,47.42
2019-02-06T13:24:46.392Z,47.36
2019-02-06T13:26:09.332Z,47.47
2019-02-06T13:27:32.687Z,47.41
2019-02-06T13:28:55.635Z,47.13
2019-02-06T13:30:19.112Z,46.79
2019-02-06T13:31:44.091Z,47.09
2019-02-06T13:32:48.392Z,47.13
2019-02-06T13:34:11.748Z,46.52
2019-02-06T13:35:35.273Z,46.79
2019-02-06T13:36:39.411Z,46.99
2019-02-06T13:39:31.267Z,47.12
2019-02-06T13:40:56.345Z,47.08
2019-02-06T13:42:19.241Z,46.86
2019-02-06T13:43:23.162Z,46.99
2019-02-06T13:44:27.080Z,46.91
2019-02-06T13:45:33.540Z,46.89
2019-02-06T13:46:37.711Z,46.71
2019-02-06T13:48:01.376Z,46.81
2019-02-06T13:49:05.608Z,46.89
2019-02-06T13:50:49.584Z,46.92
2019-02-06T13:52:12.545Z,46.86
2019-02-06T13:53:37.587Z,46.84
2019-02-06T13:58:45.602Z,46.74
2019-02-06T13:59:49.584Z,46.83
2019-02-06T14:01:12.675Z,46.80
2019-02-06T14:04:17.896Z,46.73
2019-02-06T14:05:41.883Z,46.75
2019-02-06T14:07:05.086Z,46.50
2019-02-06T14:08:13.177Z,46.60
2019-02-06T14:11:01.240Z,46.75
2019-02-06T14:12:25.807Z,46.89
2019-02-06T14:13:49.201Z,46.77
2019-02-06T14:15:12.230Z,46.86
2019-02-06T14:18:20.303Z,47.00
2019-02-06T14:19:43.318Z,47.10
2019-02-06T14:21:10.242Z,47.02
2019-02-06T14:22:33.461Z,46.87
2019-02-06T14:24:15.615Z,46.88
2019-02-06T14:25:40.591Z,46.79
2019-02-06T14:27:26.945Z,46.95
2019-02-06T14:29:02.410Z,47.06
2019-02-06T14:30:44.550Z,47.06
2019-02-06T14:32:26.956Z,47.07
2019-02-06T14:34:15.263Z,47.09
2019-02-06T14:36:04.369Z,47.08
2019-02-06T14:37:46.746Z,47.10
2019-02-06T14:39:28.905Z,47.38
2019-02-06T14:41:11.290Z,47.03
2019-02-06T14:42:38.116Z,46.99
2019-02-06T14:44:20.275Z,47.18
2019-02-06T14:46:02.414Z,47.44
2019-02-06T14:47:32.475Z,47.32
2019-02-06T14:49:14.625Z,47.61
2019-02-06T14:50:56.773Z,47.65
2019-02-06T14:52:28.613Z,47.47
2019-02-06T14:54:10.991Z,47.32
2019-02-06T14:55:53.566Z,47.28
2019-02-06T14:57:35.951Z,47.49
2019-02-06T14:59:18.280Z,47.62
2019-02-06T15:01:02.078Z,47.74
2019-02-06T15:02:44.523Z,47.75
2019-02-06T15:04:27.048Z,47.42
2019-02-06T15:06:10.940Z,47.67
2019-02-06T15:07:53.086Z,47.62
2019-02-06T15:09:35.762Z,47.62
2019-02-06T15:11:20.126Z,47.54
2019-02-06T15:12:48.887Z,47.88
2019-02-06T15:14:31.329Z,48.04
2019-02-06T15:15:41.870Z,48.08
2019-02-06T15:17:24.250Z,48.15
2019-02-06T15:19:12.157Z,48.41
2019-02-06T15:20:54.343Z,48.83
2019-02-06T15:22:21.586Z,48.62
2019-02-06T15:24:03.727Z,48.81
2019-02-06T15:25:51.744Z,48.40
2019-02-06T15:27:33.951Z,48.38
2019-02-06T15:29:05.104Z,48.55
2019-02-06T15:32:34.699Z,48.55
2019-02-06T15:34:02.328Z,48.37
2019-02-06T15:35:44.502Z,48.34
2019-02-06T15:37:12.112Z,48.40
2019-02-06T15:38:54.492Z,48.59
2019-02-06T15:40:36.646Z,48.72
2019-02-06T15:42:18.865Z,48.89
2019-02-06T15:44:03.068Z,48.99
2019-02-06T15:45:45.487Z,49.26
2019-02-06T15:47:29.354Z,49.37
2019-02-06T15:49:16.286Z,49.44
2019-02-06T15:50:58.764Z,49.51
2019-02-06T15:52:40.975Z,49.41
2019-02-06T15:54:23.105Z,49.48
2019-02-06T15:56:05.314Z,49.47
2019-02-06T15:57:47.923Z,49.63
2019-02-06T15:59:30.086Z,49.78
2019-02-06T16:01:13.970Z,49.78
2019-02-06T16:02:56.351Z,49.78
2019-02-06T16:04:43.196Z,49.74
2019-02-06T16:06:28.584Z,49.67
2019-02-06T16:08:22.586Z,49.63
2019-02-06T16:09:47.785Z,49.65
2019-02-06T16:11:30.120Z,49.57
2019-02-06T16:13:12.508Z,49.51
2019-02-06T16:14:55.198Z,49.40
2019-02-06T16:16:34.919Z,49.36
2019-02-06T16:18:17.306Z,49.52
2019-02-06T16:20:05.526Z,49.62
2019-02-06T16:21:53.009Z,49.68
2019-02-06T16:23:16.279Z,49.74
2019-02-06T16:25:07.735Z,49.67
2019-02-06T16:26:47.370Z,49.71
2019-02-06T16:28:21.368Z,49.71
2019-02-06T16:30:00.021Z,49.80
2019-02-06T16:31:32.843Z,49.87
2019-02-06T16:33:03.434Z,49.96
2019-02-06T16:34:33.643Z,50.00
2019-02-06T16:36:10.327Z,50.00
2019-02-06T16:37:44.166Z,50.00
2019-02-06T16:39:13.279Z,50.03
2019-02-06T16:40:32.480Z,50.08
2019-02-06T16:41:53.089Z,50.25
2019-02-06T16:45:44.322Z,50.35
2019-02-06T16:47:45.600Z,50.42
2019-02-06T16:49:08.653Z,50.49
2019-02-06T16:50:36.102Z,50.45
2019-02-06T16:52:18.273Z,50.53
2019-02-06T16:53:46.701Z,50.60
2019-02-06T16:55:28.840Z,50.65
2019-02-06T16:57:11.228Z,50.66
2019-02-06T16:58:53.630Z,50.78
2019-02-06T17:00:36.029Z,50.95
2019-02-06T17:02:18.435Z,51.15
2019-02-06T17:03:49.741Z,51.33
2019-02-06T17:05:31.939Z,51.54
2019-02-06T17:07:07.730Z,51.83
2019-02-06T17:08:51.602Z,52.08
2019-02-06T17:10:33.986Z,52.25
2019-02-06T17:12:16.305Z,52.40
2019-02-06T17:13:58.460Z,52.50
2019-02-06T17:15:40.602Z,52.58
2019-02-06T17:17:22.744Z,52.67
2019-02-06T17:19:05.148Z,52.78
2019-02-06T17:20:38.896Z,53.07
2019-02-06T17:22:07.231Z,53.21
2019-02-06T17:23:51.129Z,53.29
2019-02-06T17:25:33.273Z,53.36
2019-02-06T17:27:15.493Z,53.36
2019-02-06T17:28:57.656Z,53.40
2019-02-06T17:30:40.102Z,53.37
2019-02-06T17:32:17.054Z,53.31
2019-02-06T17:33:59.217Z,53.27
2019-02-06T17:35:41.361Z,53.24
2019-02-06T17:37:23.775Z,53.18
2019-02-06T17:39:05.959Z,53.21
2019-02-06T17:40:48.099Z,53.20
2019-02-06T17:42:16.023Z,53.25
2019-02-06T17:43:58.750Z,53.28
2019-02-06T17:45:41.136Z,53.37
2019-02-06T17:47:23.278Z,53.47
2019-02-06T17:49:05.460Z,53.69
2019-02-06T17:50:47.906Z,53.90
2019-02-06T17:52:30.294Z,54.11
2019-02-06T17:54:12.690Z,54.23
2019-02-06T17:55:35.995Z,54.34
2019-02-06T17:56:59.133Z,54.42
2019-02-06T18:00:08.309Z,54.61
2019-02-06T18:01:33.036Z,54.73
2019-02-06T18:02:56.006Z,54.75
2019-02-06T18:04:03.673Z,54.80
2019-02-06T18:05:08.222Z,54.70
2019-02-06T18:06:12.998Z,54.62
2019-02-06T18:07:36.167Z,54.65
2019-02-06T18:09:19.642Z,54.73
2019-02-06T18:10:43.085Z,54.91
2019-02-06T18:12:28.655Z,54.97
2019-02-06T18:13:32.484Z,54.99
2019-02-06T18:14:55.859Z,54.99
2019-02-06T18:16:21.508Z,55.07
2019-02-06T18:17:25.138Z,55.04
2019-02-06T18:18:48.444Z,55.06
2019-02-06T18:20:11.870Z,55.08
2019-02-06T18:21:35.150Z,55.04
2019-02-06T18:22:58.170Z,55.06
2019-02-06T18:24:02.079Z,55.07
2019-02-06T18:25:47.738Z,55.20
2019-02-06T18:27:31.799Z,55.26
2019-02-06T18:28:57.770Z,55.38
2019-02-06T18:31:49.723Z,55.63
2019-02-06T18:33:34.062Z,55.71
2019-02-06T18:36:39.133Z,55.80
2019-02-06T18:38:22.886Z,55.77
2019-02-06T18:39:45.758Z,55.87
2019-02-06T18:42:38.753Z,55.89
2019-02-06T18:44:04.162Z,55.89
2019-02-06T18:45:11.748Z,55.92
2019-02-06T18:46:34.790Z,55.98
2019-02-06T18:47:58.159Z,56.05
2019-02-06T18:49:21.200Z,56.04
2019-02-06T18:51:04.774Z,56.05
2019-02-06T18:53:31.723Z,55.99
2019-02-06T18:56:36.781Z,56.06
2019-02-06T18:57:42.777Z,56.01
2019-02-06T18:59:06.083Z,56.01
2019-02-06T19:00:17.309Z,56.10